sensor_id;sensor_type;location;lat;lon;timestamp;P1;durP1;ratioP1;P2;durP2;ratioP2
78774;SDS011;68119;43.398;3.676;2023-05-29T00:01:10;18.70;;;11.10;;
78774;SDS011;68119;43.398;3.676;2023-05-29T00:03:39;18.50;;;10.85;;
78774;SDS011;68119;43.398;3.676;2023-05-29T00:06:07;13.73;;;10.88;;
78774;SDS011;68119;43.398;3.676;2023-05-29T00:08:36;16.05;;;10.82;;
78774;SDS011;68119;43.398;3.676;2023-05-29T00:11:07;14.00;;;10.00;;
78774;SDS011;68119;43.398;3.676;2023-05-29T00:13:36;20.13;;;10.20;;
78774;SDS011;68119;43.398;3.676;2023-05-29T00:16:04;15.48;;;10.05;;
78774;SDS011;68119;43.398;3.676;2023-05-29T00:18:31;18.40;;;10.95;;
78774;SDS011;68119;43.398;3.676;2023-05-29T00:20:59;22.55;;;11.00;;
78774;SDS011;68119;43.398;3.676;2023-05-29T00:23:31;18.42;;;10.80;;
78774;SDS011;68119;43.398;3.676;2023-05-29T00:25:59;14.73;;;10.43;;
78774;SDS011;68119;43.398;3.676;2023-05-29T00:28:28;13.73;;;10.52;;
78774;SDS011;68119;43.398;3.676;2023-05-29T00:30:54;20.15;;;12.93;;
78774;SDS011;68119;43.398;3.676;2023-05-29T00:33:20;18.88;;;12.25;;
78774;SDS011;68119;43.398;3.676;2023-05-29T00:35:47;19.20;;;13.00;;
78774;SDS011;68119;43.398;3.676;2023-05-29T00:38:16;18.00;;;12.27;;
78774;SDS011;68119;43.398;3.676;2023-05-29T00:40:50;19.98;;;12.23;;
78774;SDS011;68119;43.398;3.676;2023-05-29T00:43:20;18.95;;;12.43;;
78774;SDS011;68119;43.398;3.676;2023-05-29T00:45:51;17.73;;;12.55;;
78774;SDS011;68119;43.398;3.676;2023-05-29T00:48:19;21.35;;;11.95;;
78774;SDS011;68119;43.398;3.676;2023-05-29T00:50:48;19.42;;;12.10;;
78774;SDS011;68119;43.398;3.676;2023-05-29T00:53:17;15.60;;;11.57;;
78774;SDS011;68119;43.398;3.676;2023-05-29T00:55:46;22.25;;;11.77;;
78774;SDS011;68119;43.398;3.676;2023-05-29T00:58:12;21.83;;;11.60;;
78774;SDS011;68119;43.398;3.676;2023-05-29T01:00:40;21.63;;;11.52;;
78774;SDS011;68119;43.398;3.676;2023-05-29T01:03:09;15.40;;;10.38;;
78774;SDS011;68119;43.398;3.676;2023-05-29T01:05:40;17.75;;;11.57;;
78774;SDS011;68119;43.398;3.676;2023-05-29T01:08:07;15.90;;;10.50;;
78774;SDS011;68119;43.398;3.676;2023-05-29T01:10:35;15.07;;;10.68;;
78774;SDS011;68119;43.398;3.676;2023-05-29T01:13:19;23.63;;;11.30;;
78774;SDS011;68119;43.398;3.676;2023-05-29T01:21:14;18.88;;;10.75;;
78774;SDS011;68119;43.398;3.676;2023-05-29T01:28:51;18.20;;;10.70;;
78774;SDS011;68119;43.398;3.676;2023-05-29T01:33:46;16.73;;;10.98;;
78774;SDS011;68119;43.398;3.676;2023-05-29T01:36:22;17.58;;;10.90;;
78774;SDS011;68119;43.398;3.676;2023-05-29T01:38:52;17.05;;;10.73;;
78774;SDS011;68119;43.398;3.676;2023-05-29T01:41:21;19.13;;;10.80;;
78774;SDS011;68119;43.398;3.676;2023-05-29T01:43:52;16.83;;;10.85;;
78774;SDS011;68119;43.398;3.676;2023-05-29T01:46:21;15.55;;;10.32;;
78774;SDS011;68119;43.398;3.676;2023-05-29T01:48:50;17.95;;;11.35;;
78774;SDS011;68119;43.398;3.676;2023-05-29T01:51:19;20.73;;;11.48;;
78774;SDS011;68119;43.398;3.676;2023-05-29T01:53:45;16.63;;;10.98;;
78774;SDS011;68119;43.398;3.676;2023-05-29T01:56:16;18.70;;;12.02;;
78774;SDS011;68119;43.398;3.676;2023-05-29T01:58:45;18.20;;;11.18;;
78774;SDS011;68119;43.398;3.676;2023-05-29T02:01:14;17.77;;;11.18;;
78774;SDS011;68119;43.398;3.676;2023-05-29T02:03:42;15.75;;;10.95;;
78774;SDS011;68119;43.398;3.676;2023-05-29T02:06:08;19.88;;;11.80;;
78774;SDS011;68119;43.398;3.676;2023-05-29T02:08:38;16.63;;;10.98;;
78774;SDS011;68119;43.398;3.676;2023-05-29T02:11:12;18.65;;;10.60;;
78774;SDS011;68119;43.398;3.676;2023-05-29T02:13:38;18.60;;;10.90;;
78774;SDS011;68119;43.398;3.676;2023-05-29T02:16:05;19.95;;;10.82;;
78774;SDS011;68119;43.398;3.676;2023-05-29T02:18:31;24.13;;;11.15;;
78774;SDS011;68119;43.398;3.676;2023-05-29T02:20:59;16.80;;;10.45;;
78774;SDS011;68119;43.398;3.676;2023-05-29T02:23:29;16.35;;;10.90;;
78774;SDS011;68119;43.398;3.676;2023-05-29T02:26:00;20.73;;;10.40;;
78774;SDS011;68119;43.398;3.676;2023-05-29T02:28:26;17.95;;;10.32;;
78774;SDS011;68119;43.398;3.676;2023-05-29T02:30:58;18.15;;;10.27;;
78774;SDS011;68119;43.398;3.676;2023-05-29T02:33:25;19.45;;;10.60;;
78774;SDS011;68119;43.398;3.676;2023-05-29T02:35:54;18.85;;;10.32;;
78774;SDS011;68119;43.398;3.676;2023-05-29T02:40:53;20.90;;;10.20;;
78774;SDS011;68119;43.398;3.676;2023-05-29T02:43:21;21.55;;;10.75;;
78774;SDS011;68119;43.398;3.676;2023-05-29T02:46:08;20.63;;;11.02;;
78774;SDS011;68119;43.398;3.676;2023-05-29T02:48:34;21.73;;;10.85;;
78774;SDS011;68119;43.398;3.676;2023-05-29T02:51:06;18.23;;;10.38;;
78774;SDS011;68119;43.398;3.676;2023-05-29T02:53:37;22.85;;;10.60;;
78774;SDS011;68119;43.398;3.676;2023-05-29T02:56:03;22.83;;;10.00;;
78774;SDS011;68119;43.398;3.676;2023-05-29T02:58:32;19.55;;;9.65;;
78774;SDS011;68119;43.398;3.676;2023-05-29T03:01:00;19.25;;;9.85;;
78774;SDS011;68119;43.398;3.676;2023-05-29T03:03:29;16.42;;;9.38;;
78774;SDS011;68119;43.398;3.676;2023-05-29T03:05:56;20.60;;;9.35;;
78774;SDS011;68119;43.398;3.676;2023-05-29T03:08:25;23.80;;;9.68;;
78774;SDS011;68119;43.398;3.676;2023-05-29T03:10:55;22.25;;;9.55;;
78774;SDS011;68119;43.398;3.676;2023-05-29T03:13:22;18.30;;;9.20;;
78774;SDS011;68119;43.398;3.676;2023-05-29T03:15:51;16.25;;;9.52;;
78774;SDS011;68119;43.398;3.676;2023-05-29T03:18:24;19.70;;;9.88;;
78774;SDS011;68119;43.398;3.676;2023-05-29T03:20:53;18.60;;;9.95;;
78774;SDS011;68119;43.398;3.676;2023-05-29T03:23:22;20.55;;;9.35;;
78774;SDS011;68119;43.398;3.676;2023-05-29T03:25:51;20.27;;;10.23;;
78774;SDS011;68119;43.398;3.676;2023-05-29T03:31:06;20.10;;;9.57;;
78774;SDS011;68119;43.398;3.676;2023-05-29T03:33:37;20.92;;;9.15;;
78774;SDS011;68119;43.398;3.676;2023-05-29T03:36:03;19.60;;;9.85;;
78774;SDS011;68119;43.398;3.676;2023-05-29T03:38:30;21.45;;;9.95;;
78774;SDS011;68119;43.398;3.676;2023-05-29T03:40:56;27.17;;;9.73;;
78774;SDS011;68119;43.398;3.676;2023-05-29T03:43:27;14.57;;;9.68;;
78774;SDS011;68119;43.398;3.676;2023-05-29T03:45:53;18.08;;;9.90;;
78774;SDS011;68119;43.398;3.676;2023-05-29T03:48:22;22.45;;;9.82;;
78774;SDS011;68119;43.398;3.676;2023-05-29T03:50:51;19.17;;;9.57;;
78774;SDS011;68119;43.398;3.676;2023-05-29T03:55:48;18.30;;;10.00;;
78774;SDS011;68119;43.398;3.676;2023-05-29T03:58:18;24.50;;;10.25;;
78774;SDS011;68119;43.398;3.676;2023-05-29T04:00:47;20.95;;;10.85;;
78774;SDS011;68119;43.398;3.676;2023-05-29T04:03:16;21.17;;;10.70;;
78774;SDS011;68119;43.398;3.676;2023-05-29T04:05:45;17.85;;;10.68;;
78774;SDS011;68119;43.398;3.676;2023-05-29T04:08:11;20.27;;;11.32;;
78774;SDS011;68119;43.398;3.676;2023-05-29T04:10:41;17.83;;;10.60;;
78774;SDS011;68119;43.398;3.676;2023-05-29T04:13:11;21.40;;;11.60;;
78774;SDS011;68119;43.398;3.676;2023-05-29T04:15:39;16.77;;;10.60;;
78774;SDS011;68119;43.398;3.676;2023-05-29T04:18:11;17.88;;;11.82;;
78774;SDS011;68119;43.398;3.676;2023-05-29T04:20:40;19.58;;;11.00;;
78774;SDS011;68119;43.398;3.676;2023-05-29T04:23:09;16.85;;;11.07;;
78774;SDS011;68119;43.398;3.676;2023-05-29T04:25:38;17.92;;;11.15;;
78774;SDS011;68119;43.398;3.676;2023-05-29T04:28:07;22.00;;;11.85;;
78774;SDS011;68119;43.398;3.676;2023-05-29T04:30:36;20.38;;;11.43;;
78774;SDS011;68119;43.398;3.676;2023-05-29T04:33:07;17.40;;;11.00;;
78774;SDS011;68119;43.398;3.676;2023-05-29T04:35:38;17.90;;;11.33;;
78774;SDS011;68119;43.398;3.676;2023-05-29T04:38:08;19.38;;;11.25;;
78774;SDS011;68119;43.398;3.676;2023-05-29T04:40:34;17.25;;;11.13;;
78774;SDS011;68119;43.398;3.676;2023-05-29T04:43:01;20.02;;;11.18;;
78774;SDS011;68119;43.398;3.676;2023-05-29T04:45:32;18.33;;;11.32;;
78774;SDS011;68119;43.398;3.676;2023-05-29T04:48:01;22.05;;;11.50;;
78774;SDS011;68119;43.398;3.676;2023-05-29T04:50:31;18.13;;;10.88;;
78774;SDS011;68119;43.398;3.676;2023-05-29T04:52:58;23.50;;;12.05;;
78774;SDS011;68119;43.398;3.676;2023-05-29T04:55:32;26.27;;;12.02;;
78774;SDS011;68119;43.398;3.676;2023-05-29T04:57:59;22.00;;;11.60;;
78774;SDS011;68119;43.398;3.676;2023-05-29T05:00:28;22.92;;;11.45;;
78774;SDS011;68119;43.398;3.676;2023-05-29T05:02:54;21.92;;;11.55;;
78774;SDS011;68119;43.398;3.676;2023-05-29T05:05:21;17.73;;;11.18;;
78774;SDS011;68119;43.398;3.676;2023-05-29T05:07:52;20.60;;;11.35;;
78774;SDS011;68119;43.398;3.676;2023-05-29T05:10:18;25.30;;;11.15;;
78774;SDS011;68119;43.398;3.676;2023-05-29T05:12:47;17.80;;;10.80;;
78774;SDS011;68119;43.398;3.676;2023-05-29T05:17:47;22.42;;;11.52;;
78774;SDS011;68119;43.398;3.676;2023-05-29T05:20:20;23.42;;;11.30;;
78774;SDS011;68119;43.398;3.676;2023-05-29T05:22:52;20.02;;;10.75;;
78774;SDS011;68119;43.398;3.676;2023-05-29T05:25:21;23.55;;;11.30;;
78774;SDS011;68119;43.398;3.676;2023-05-29T05:27:49;20.77;;;11.90;;
78774;SDS011;68119;43.398;3.676;2023-05-29T05:30:16;18.02;;;11.02;;
78774;SDS011;68119;43.398;3.676;2023-05-29T05:32:50;25.65;;;11.75;;
78774;SDS011;68119;43.398;3.676;2023-05-29T05:35:16;19.55;;;11.75;;
78774;SDS011;68119;43.398;3.676;2023-05-29T05:37:42;16.75;;;11.45;;
78774;SDS011;68119;43.398;3.676;2023-05-29T05:40:11;22.23;;;11.65;;
78774;SDS011;68119;43.398;3.676;2023-05-29T05:42:38;17.95;;;11.80;;
78774;SDS011;68119;43.398;3.676;2023-05-29T05:45:04;19.10;;;12.23;;
78774;SDS011;68119;43.398;3.676;2023-05-29T05:47:31;19.67;;;11.85;;
78774;SDS011;68119;43.398;3.676;2023-05-29T05:50:00;23.80;;;12.10;;
78774;SDS011;68119;43.398;3.676;2023-05-29T05:52:29;17.95;;;12.20;;
78774;SDS011;68119;43.398;3.676;2023-05-29T05:54:58;22.38;;;12.75;;
78774;SDS011;68119;43.398;3.676;2023-05-29T05:57:27;22.70;;;12.70;;
78774;SDS011;68119;43.398;3.676;2023-05-29T05:59:53;20.40;;;13.20;;
78774;SDS011;68119;43.398;3.676;2023-05-29T06:02:22;20.05;;;13.88;;
78774;SDS011;68119;43.398;3.676;2023-05-29T06:04:51;32.30;;;14.75;;
78774;SDS011;68119;43.398;3.676;2023-05-29T06:07:25;20.40;;;12.70;;
78774;SDS011;68119;43.398;3.676;2023-05-29T06:09:54;23.63;;;13.10;;
78774;SDS011;68119;43.398;3.676;2023-05-29T06:12:20;26.23;;;13.38;;
78774;SDS011;68119;43.398;3.676;2023-05-29T06:14:52;23.10;;;12.15;;
78774;SDS011;68119;43.398;3.676;2023-05-29T06:17:21;23.80;;;12.70;;
78774;SDS011;68119;43.398;3.676;2023-05-29T06:19:49;24.40;;;12.10;;
78774;SDS011;68119;43.398;3.676;2023-05-29T06:22:18;22.17;;;12.35;;
78774;SDS011;68119;43.398;3.676;2023-05-29T06:24:49;19.80;;;11.80;;
78774;SDS011;68119;43.398;3.676;2023-05-29T06:27:16;19.55;;;12.40;;
78774;SDS011;68119;43.398;3.676;2023-05-29T06:29:43;24.17;;;12.60;;
78774;SDS011;68119;43.398;3.676;2023-05-29T06:32:14;22.08;;;12.90;;
78774;SDS011;68119;43.398;3.676;2023-05-29T06:34:41;25.10;;;13.57;;
78774;SDS011;68119;43.398;3.676;2023-05-29T06:37:09;23.33;;;12.48;;
78774;SDS011;68119;43.398;3.676;2023-05-29T06:39:47;24.52;;;11.98;;
78774;SDS011;68119;43.398;3.676;2023-05-29T06:42:15;20.25;;;11.35;;
78774;SDS011;68119;43.398;3.676;2023-05-29T06:44:44;25.73;;;12.27;;
78774;SDS011;68119;43.398;3.676;2023-05-29T06:47:13;22.95;;;11.20;;
78774;SDS011;68119;43.398;3.676;2023-05-29T06:49:39;23.40;;;11.95;;
78774;SDS011;68119;43.398;3.676;2023-05-29T06:52:07;20.05;;;11.57;;
78774;SDS011;68119;43.398;3.676;2023-05-29T06:54:33;29.52;;;11.27;;
78774;SDS011;68119;43.398;3.676;2023-05-29T06:57:07;21.65;;;11.25;;
78774;SDS011;68119;43.398;3.676;2023-05-29T06:59:33;22.33;;;10.50;;
78774;SDS011;68119;43.398;3.676;2023-05-29T07:02:05;19.70;;;10.23;;
78774;SDS011;68119;43.398;3.676;2023-05-29T07:04:35;21.45;;;10.32;;
78774;SDS011;68119;43.398;3.676;2023-05-29T07:07:02;22.35;;;9.93;;
78774;SDS011;68119;43.398;3.676;2023-05-29T07:09:39;17.40;;;10.07;;
78774;SDS011;68119;43.398;3.676;2023-05-29T08:48:56;18.35;;;9.88;;
78774;SDS011;68119;43.398;3.676;2023-05-29T09:01:55;22.98;;;10.27;;
78774;SDS011;68119;43.398;3.676;2023-05-29T09:05:01;19.17;;;10.15;;
78774;SDS011;68119;43.398;3.676;2023-05-29T09:13:02;16.95;;;10.00;;
78774;SDS011;68119;43.398;3.676;2023-05-29T09:15:59;17.35;;;9.45;;
78774;SDS011;68119;43.398;3.676;2023-05-29T09:18:31;20.85;;;10.18;;
78774;SDS011;68119;43.398;3.676;2023-05-29T09:21:38;20.30;;;10.30;;
78774;SDS011;68119;43.398;3.676;2023-05-29T09:24:23;18.08;;;9.38;;
78774;SDS011;68119;43.398;3.676;2023-05-29T09:27:15;18.67;;;9.25;;
78774;SDS011;68119;43.398;3.676;2023-05-29T09:33:06;21.88;;;9.48;;
78774;SDS011;68119;43.398;3.676;2023-05-29T09:38:51;19.75;;;9.25;;
78774;SDS011;68119;43.398;3.676;2023-05-29T09:41:21;19.17;;;9.63;;
78774;SDS011;68119;43.398;3.676;2023-05-29T09:43:51;23.27;;;10.50;;
78774;SDS011;68119;43.398;3.676;2023-05-29T09:46:42;19.23;;;9.90;;
78774;SDS011;68119;43.398;3.676;2023-05-29T09:49:48;18.10;;;9.25;;
78774;SDS011;68119;43.398;3.676;2023-05-29T09:52:15;12.02;;;9.18;;
78774;SDS011;68119;43.398;3.676;2023-05-29T09:54:50;20.70;;;10.15;;
78774;SDS011;68119;43.398;3.676;2023-05-29T09:57:17;16.98;;;9.55;;
78774;SDS011;68119;43.398;3.676;2023-05-29T09:59:43;18.83;;;9.88;;
78774;SDS011;68119;43.398;3.676;2023-05-29T10:02:43;21.33;;;10.20;;
78774;SDS011;68119;43.398;3.676;2023-05-29T10:05:27;18.10;;;9.20;;
78774;SDS011;68119;43.398;3.676;2023-05-29T10:08:31;17.10;;;9.93;;
78774;SDS011;68119;43.398;3.676;2023-05-29T10:11:23;21.08;;;10.27;;
78774;SDS011;68119;43.398;3.676;2023-05-29T10:13:52;18.38;;;9.50;;
78774;SDS011;68119;43.398;3.676;2023-05-29T10:16:26;19.15;;;9.88;;
78774;SDS011;68119;43.398;3.676;2023-05-29T10:19:06;19.25;;;10.00;;
78774;SDS011;68119;43.398;3.676;2023-05-29T10:21:54;18.95;;;9.07;;
78774;SDS011;68119;43.398;3.676;2023-05-29T10:24:31;19.30;;;9.48;;
78774;SDS011;68119;43.398;3.676;2023-05-29T10:29:58;24.40;;;9.02;;
78774;SDS011;68119;43.398;3.676;2023-05-29T10:35:43;17.33;;;9.25;;
78774;SDS011;68119;43.398;3.676;2023-05-29T10:38:25;19.13;;;9.30;;
78774;SDS011;68119;43.398;3.676;2023-05-29T10:47:25;15.82;;;9.02;;
78774;SDS011;68119;43.398;3.676;2023-05-29T10:50:12;15.10;;;8.50;;
78774;SDS011;68119;43.398;3.676;2023-05-29T10:52:42;17.80;;;8.88;;
78774;SDS011;68119;43.398;3.676;2023-05-29T10:55:48;16.15;;;8.15;;
78774;SDS011;68119;43.398;3.676;2023-05-29T10:58:41;22.98;;;9.13;;
78774;SDS011;68119;43.398;3.676;2023-05-29T11:01:08;17.58;;;9.27;;
78774;SDS011;68119;43.398;3.676;2023-05-29T11:03:38;18.70;;;9.30;;
78774;SDS011;68119;43.398;3.676;2023-05-29T11:06:17;18.52;;;9.05;;
78774;SDS011;68119;43.398;3.676;2023-05-29T11:09:04;24.15;;;9.25;;
78774;SDS011;68119;43.398;3.676;2023-05-29T11:15:07;19.13;;;8.75;;
78774;SDS011;68119;43.398;3.676;2023-05-29T11:23:19;19.67;;;8.20;;
78774;SDS011;68119;43.398;3.676;2023-05-29T11:26:09;19.25;;;7.28;;
78774;SDS011;68119;43.398;3.676;2023-05-29T11:34:14;17.63;;;7.35;;
78774;SDS011;68119;43.398;3.676;2023-05-29T11:37:22;17.92;;;6.47;;
78774;SDS011;68119;43.398;3.676;2023-05-29T11:40:19;20.50;;;6.55;;
78774;SDS011;68119;43.398;3.676;2023-05-29T11:42:50;13.65;;;5.88;;
78774;SDS011;68119;43.398;3.676;2023-05-29T11:45:21;15.32;;;6.40;;
78774;SDS011;68119;43.398;3.676;2023-05-29T11:50:55;16.35;;;6.38;;
78774;SDS011;68119;43.398;3.676;2023-05-29T11:53:28;13.90;;;6.35;;
78774;SDS011;68119;43.398;3.676;2023-05-29T11:56:06;12.48;;;6.10;;
78774;SDS011;68119;43.398;3.676;2023-05-29T11:58:41;15.37;;;6.33;;
78774;SDS011;68119;43.398;3.676;2023-05-29T12:01:30;15.55;;;5.63;;
78774;SDS011;68119;43.398;3.676;2023-05-29T12:04:19;14.95;;;6.25;;
78774;SDS011;68119;43.398;3.676;2023-05-29T12:07:20;17.67;;;5.82;;
78774;SDS011;68119;43.398;3.676;2023-05-29T12:10:00;15.05;;;6.03;;
78774;SDS011;68119;43.398;3.676;2023-05-29T12:12:37;16.48;;;6.00;;
78774;SDS011;68119;43.398;3.676;2023-05-29T12:15:17;17.60;;;6.15;;
78774;SDS011;68119;43.398;3.676;2023-05-29T12:17:54;15.00;;;5.60;;
78774;SDS011;68119;43.398;3.676;2023-05-29T12:20:38;16.50;;;6.20;;
78774;SDS011;68119;43.398;3.676;2023-05-29T12:23:16;15.95;;;5.95;;
78774;SDS011;68119;43.398;3.676;2023-05-29T12:25:46;20.02;;;6.00;;
78774;SDS011;68119;43.398;3.676;2023-05-29T12:28:15;18.10;;;6.10;;
78774;SDS011;68119;43.398;3.676;2023-05-29T12:30:46;16.33;;;6.40;;
78774;SDS011;68119;43.398;3.676;2023-05-29T12:33:33;13.77;;;5.70;;
78774;SDS011;68119;43.398;3.676;2023-05-29T12:36:46;17.75;;;6.10;;
78774;SDS011;68119;43.398;3.676;2023-05-29T12:39:18;22.60;;;6.15;;
78774;SDS011;68119;43.398;3.676;2023-05-29T12:42:07;16.08;;;6.10;;
78774;SDS011;68119;43.398;3.676;2023-05-29T12:44:41;17.73;;;5.15;;
78774;SDS011;68119;43.398;3.676;2023-05-29T12:47:13;17.08;;;5.75;;
78774;SDS011;68119;43.398;3.676;2023-05-29T12:49:47;15.70;;;5.40;;
78774;SDS011;68119;43.398;3.676;2023-05-29T12:52:23;17.10;;;5.70;;
78774;SDS011;68119;43.398;3.676;2023-05-29T12:54:55;20.17;;;6.00;;
78774;SDS011;68119;43.398;3.676;2023-05-29T12:57:27;18.63;;;5.68;;
78774;SDS011;68119;43.398;3.676;2023-05-29T12:59:56;18.73;;;5.75;;
78774;SDS011;68119;43.398;3.676;2023-05-29T13:02:55;19.48;;;5.60;;
78774;SDS011;68119;43.398;3.676;2023-05-29T13:05:22;14.25;;;5.32;;
78774;SDS011;68119;43.398;3.676;2023-05-29T13:07:51;14.63;;;5.43;;
78774;SDS011;68119;43.398;3.676;2023-05-29T13:10:20;15.35;;;5.72;;
78774;SDS011;68119;43.398;3.676;2023-05-29T13:12:51;15.00;;;5.53;;
78774;SDS011;68119;43.398;3.676;2023-05-29T13:15:27;15.65;;;5.32;;
78774;SDS011;68119;43.398;3.676;2023-05-29T13:17:59;23.20;;;5.20;;
78774;SDS011;68119;43.398;3.676;2023-05-29T13:20:31;16.33;;;4.55;;
78774;SDS011;68119;43.398;3.676;2023-05-29T13:23:03;16.90;;;5.07;;
78774;SDS011;68119;43.398;3.676;2023-05-29T13:25:37;15.77;;;5.45;;
78774;SDS011;68119;43.398;3.676;2023-05-29T13:28:07;19.20;;;5.38;;
78774;SDS011;68119;43.398;3.676;2023-05-29T13:30:46;15.70;;;5.75;;
78774;SDS011;68119;43.398;3.676;2023-05-29T13:33:24;16.60;;;5.38;;
78774;SDS011;68119;43.398;3.676;2023-05-29T13:35:53;18.33;;;5.45;;
78774;SDS011;68119;43.398;3.676;2023-05-29T13:38:22;19.90;;;5.93;;
78774;SDS011;68119;43.398;3.676;2023-05-29T13:40:51;20.73;;;5.97;;
78774;SDS011;68119;43.398;3.676;2023-05-29T13:43:37;17.40;;;5.70;;
78774;SDS011;68119;43.398;3.676;2023-05-29T13:46:04;18.27;;;5.70;;
78774;SDS011;68119;43.398;3.676;2023-05-29T13:48:40;17.65;;;5.50;;
78774;SDS011;68119;43.398;3.676;2023-05-29T13:51:14;18.30;;;5.85;;
78774;SDS011;68119;43.398;3.676;2023-05-29T13:53:50;18.45;;;6.50;;
78774;SDS011;68119;43.398;3.676;2023-05-29T13:56:30;17.48;;;5.72;;
78774;SDS011;68119;43.398;3.676;2023-05-29T13:58:59;19.20;;;5.60;;
78774;SDS011;68119;43.398;3.676;2023-05-29T14:01:48;17.00;;;5.97;;
78774;SDS011;68119;43.398;3.676;2023-05-29T14:04:17;21.48;;;6.30;;
78774;SDS011;68119;43.398;3.676;2023-05-29T14:06:49;19.27;;;6.47;;
78774;SDS011;68119;43.398;3.676;2023-05-29T14:09:22;16.05;;;6.28;;
78774;SDS011;68119;43.398;3.676;2023-05-29T14:12:11;18.60;;;6.22;;
78774;SDS011;68119;43.398;3.676;2023-05-29T14:14:48;16.05;;;5.72;;
78774;SDS011;68119;43.398;3.676;2023-05-29T14:17:51;17.58;;;6.35;;
78774;SDS011;68119;43.398;3.676;2023-05-29T14:20:18;20.48;;;6.72;;
78774;SDS011;68119;43.398;3.676;2023-05-29T14:22:47;21.23;;;6.35;;
78774;SDS011;68119;43.398;3.676;2023-05-29T14:25:13;15.65;;;6.15;;
78774;SDS011;68119;43.398;3.676;2023-05-29T14:27:42;23.95;;;6.57;;
78774;SDS011;68119;43.398;3.676;2023-05-29T14:30:28;18.52;;;6.72;;
78774;SDS011;68119;43.398;3.676;2023-05-29T14:33:09;27.38;;;6.68;;
78774;SDS011;68119;43.398;3.676;2023-05-29T14:36:05;20.15;;;6.30;;
78774;SDS011;68119;43.398;3.676;2023-05-29T14:38:32;16.55;;;5.93;;
78774;SDS011;68119;43.398;3.676;2023-05-29T14:41:07;17.60;;;5.68;;
78774;SDS011;68119;43.398;3.676;2023-05-29T14:43:52;18.40;;;6.25;;
78774;SDS011;68119;43.398;3.676;2023-05-29T14:46:35;16.15;;;6.50;;
78774;SDS011;68119;43.398;3.676;2023-05-29T14:49:11;18.35;;;7.30;;
78774;SDS011;68119;43.398;3.676;2023-05-29T14:51:40;18.23;;;6.85;;
78774;SDS011;68119;43.398;3.676;2023-05-29T14:54:23;21.17;;;6.68;;
78774;SDS011;68119;43.398;3.676;2023-05-29T14:57:34;20.55;;;5.95;;
78774;SDS011;68119;43.398;3.676;2023-05-29T15:00:04;21.38;;;6.35;;
78774;SDS011;68119;43.398;3.676;2023-05-29T15:02:34;27.92;;;6.57;;
78774;SDS011;68119;43.398;3.676;2023-05-29T15:05:00;18.45;;;6.40;;
78774;SDS011;68119;43.398;3.676;2023-05-29T15:07:33;25.05;;;6.28;;
78774;SDS011;68119;43.398;3.676;2023-05-29T15:10:09;23.35;;;6.25;;
78774;SDS011;68119;43.398;3.676;2023-05-29T15:12:45;23.05;;;5.90;;
78774;SDS011;68119;43.398;3.676;2023-05-29T15:15:14;24.40;;;6.40;;
78774;SDS011;68119;43.398;3.676;2023-05-29T15:17:41;19.80;;;6.07;;
78774;SDS011;68119;43.398;3.676;2023-05-29T15:20:25;27.63;;;6.45;;
78774;SDS011;68119;43.398;3.676;2023-05-29T15:25:39;22.20;;;6.13;;
78774;SDS011;68119;43.398;3.676;2023-05-29T15:28:20;20.27;;;6.30;;
78774;SDS011;68119;43.398;3.676;2023-05-29T15:30:58;27.08;;;7.45;;
78774;SDS011;68119;43.398;3.676;2023-05-29T15:33:30;25.70;;;7.78;;
78774;SDS011;68119;43.398;3.676;2023-05-29T15:36:05;26.10;;;7.85;;
78774;SDS011;68119;43.398;3.676;2023-05-29T15:39:11;28.40;;;8.65;;
78774;SDS011;68119;43.398;3.676;2023-05-29T15:41:44;25.70;;;7.13;;
78774;SDS011;68119;43.398;3.676;2023-05-29T15:44:11;23.75;;;6.93;;
78774;SDS011;68119;43.398;3.676;2023-05-29T15:46:41;19.95;;;6.85;;
78774;SDS011;68119;43.398;3.676;2023-05-29T15:49:08;23.58;;;6.80;;
78774;SDS011;68119;43.398;3.676;2023-05-29T15:51:39;21.42;;;6.80;;
78774;SDS011;68119;43.398;3.676;2023-05-29T15:54:10;25.52;;;6.97;;
78774;SDS011;68119;43.398;3.676;2023-05-29T15:56:41;24.58;;;7.53;;
78774;SDS011;68119;43.398;3.676;2023-05-29T15:59:08;23.55;;;7.28;;
78774;SDS011;68119;43.398;3.676;2023-05-29T16:01:43;24.45;;;7.95;;
78774;SDS011;68119;43.398;3.676;2023-05-29T16:04:28;24.25;;;6.80;;
78774;SDS011;68119;43.398;3.676;2023-05-29T16:06:59;25.63;;;7.18;;
78774;SDS011;68119;43.398;3.676;2023-05-29T16:09:27;36.58;;;11.18;;
78774;SDS011;68119;43.398;3.676;2023-05-29T16:12:00;28.30;;;10.45;;
78774;SDS011;68119;43.398;3.676;2023-05-29T16:14:31;24.05;;;9.23;;
78774;SDS011;68119;43.398;3.676;2023-05-29T16:17:00;28.67;;;8.10;;
78774;SDS011;68119;43.398;3.676;2023-05-29T16:24:44;58.75;;;15.15;;
78774;SDS011;68119;43.398;3.676;2023-05-29T16:27:16;49.22;;;13.73;;
78774;SDS011;68119;43.398;3.676;2023-05-29T16:29:48;42.97;;;14.85;;
78774;SDS011;68119;43.398;3.676;2023-05-29T16:32:19;39.97;;;13.70;;
78774;SDS011;68119;43.398;3.676;2023-05-29T16:34:51;32.70;;;11.57;;
78774;SDS011;68119;43.398;3.676;2023-05-29T16:37:22;34.88;;;11.88;;
78774;SDS011;68119;43.398;3.676;2023-05-29T16:39:51;29.52;;;11.38;;
78774;SDS011;68119;43.398;3.676;2023-05-29T16:42:20;30.85;;;10.68;;
78774;SDS011;68119;43.398;3.676;2023-05-29T16:44:54;28.13;;;10.45;;
78774;SDS011;68119;43.398;3.676;2023-05-29T16:47:22;28.17;;;10.88;;
78774;SDS011;68119;43.398;3.676;2023-05-29T16:49:51;37.53;;;11.52;;
78774;SDS011;68119;43.398;3.676;2023-05-29T16:52:22;37.03;;;12.35;;
78774;SDS011;68119;43.398;3.676;2023-05-29T16:54:54;36.70;;;12.05;;
78774;SDS011;68119;43.398;3.676;2023-05-29T16:57:32;25.95;;;11.90;;
78774;SDS011;68119;43.398;3.676;2023-05-29T17:00:00;35.75;;;13.00;;
78774;SDS011;68119;43.398;3.676;2023-05-29T17:02:26;34.53;;;13.07;;
78774;SDS011;68119;43.398;3.676;2023-05-29T17:04:55;33.72;;;12.95;;
78774;SDS011;68119;43.398;3.676;2023-05-29T17:07:25;27.73;;;12.18;;
78774;SDS011;68119;43.398;3.676;2023-05-29T17:09:54;23.88;;;10.95;;
78774;SDS011;68119;43.398;3.676;2023-05-29T17:12:23;24.73;;;10.85;;
78774;SDS011;68119;43.398;3.676;2023-05-29T17:14:49;22.73;;;10.88;;
78774;SDS011;68119;43.398;3.676;2023-05-29T17:17:18;19.70;;;9.50;;
78774;SDS011;68119;43.398;3.676;2023-05-29T17:19:50;26.08;;;10.27;;
78774;SDS011;68119;43.398;3.676;2023-05-29T17:22:19;15.45;;;9.43;;
78774;SDS011;68119;43.398;3.676;2023-05-29T17:24:47;17.00;;;9.32;;
78774;SDS011;68119;43.398;3.676;2023-05-29T17:27:16;14.25;;;9.00;;
78774;SDS011;68119;43.398;3.676;2023-05-29T17:29:45;15.73;;;9.73;;
78774;SDS011;68119;43.398;3.676;2023-05-29T17:32:16;14.85;;;9.25;;
78774;SDS011;68119;43.398;3.676;2023-05-29T17:34:43;16.52;;;9.45;;
78774;SDS011;68119;43.398;3.676;2023-05-29T17:37:14;13.63;;;8.13;;
78774;SDS011;68119;43.398;3.676;2023-05-29T17:39:41;15.35;;;8.77;;
78774;SDS011;68119;43.398;3.676;2023-05-29T17:42:07;15.50;;;10.63;;
78774;SDS011;68119;43.398;3.676;2023-05-29T17:44:36;15.05;;;8.90;;
78774;SDS011;68119;43.398;3.676;2023-05-29T17:47:11;11.40;;;8.32;;
78774;SDS011;68119;43.398;3.676;2023-05-29T17:49:39;13.57;;;10.05;;
78774;SDS011;68119;43.398;3.676;2023-05-29T17:52:05;12.35;;;8.93;;
78774;SDS011;68119;43.398;3.676;2023-05-29T17:54:35;12.55;;;9.25;;
78774;SDS011;68119;43.398;3.676;2023-05-29T17:57:04;14.05;;;9.18;;
78774;SDS011;68119;43.398;3.676;2023-05-29T17:59:35;19.73;;;9.65;;
78774;SDS011;68119;43.398;3.676;2023-05-29T18:02:07;21.42;;;9.27;;